createdAt,value
2018-12-18T00:00:07.923Z,101194.27
2018-12-18T00:02:36.038Z,101190.47
2018-12-18T00:05:07.000Z,101192.73
2018-12-18T00:07:35.123Z,101191.25
2018-12-18T00:10:04.564Z,101190.92
2018-12-18T00:12:32.676Z,101189.28
2018-12-18T00:15:00.781Z,101182.83
2018-12-18T00:17:28.906Z,101181.66
2018-12-18T00:19:57.003Z,101179.81
2018-12-18T00:22:25.109Z,101178.32
2018-12-18T00:24:53.231Z,101183.45
2018-12-18T00:27:21.341Z,101177.66
2018-12-18T00:29:49.540Z,101170.23
2018-12-18T00:32:17.644Z,101166.44
2018-12-18T00:34:45.758Z,101165.92
2018-12-18T00:37:13.860Z,101163.92
2018-12-18T00:39:41.982Z,101163.44
2018-12-18T00:42:10.084Z,101163.44
2018-12-18T00:44:38.206Z,101157.83
2018-12-18T00:47:06.311Z,101159.11
2018-12-18T00:49:34.431Z,101158.45
2018-12-18T00:52:02.569Z,101154.47
2018-12-18T00:54:30.693Z,101151.19
2018-12-18T00:56:58.920Z,101156.62
2018-12-18T00:59:27.033Z,101151.17
2018-12-18T01:02:00.121Z,101153.00
2018-12-18T01:04:28.242Z,101151.19
2018-12-18T01:06:56.339Z,101147.89
2018-12-18T01:09:24.470Z,101155.96
2018-12-18T01:11:52.584Z,101161.56
2018-12-18T01:14:20.708Z,101156.96
2018-12-18T01:16:48.811Z,101160.11
2018-12-18T01:19:16.926Z,101157.98
2018-12-18T01:21:45.028Z,101159.09
2018-12-18T01:24:13.146Z,101153.38
2018-12-18T01:26:41.245Z,101157.67
2018-12-18T01:29:09.370Z,101159.47
2018-12-18T01:31:37.476Z,101155.73
2018-12-18T01:34:05.593Z,101161.17
2018-12-18T01:36:33.702Z,101154.89
2018-12-18T01:39:01.812Z,101156.72
2018-12-18T01:41:29.919Z,101152.29
2018-12-18T01:43:58.027Z,101152.13
2018-12-18T01:46:26.134Z,101151.16
2018-12-18T01:48:54.256Z,101150.16
2018-12-18T01:51:22.360Z,101146.37
2018-12-18T01:53:50.478Z,101149.51
2018-12-18T01:56:18.580Z,101143.55
2018-12-18T01:58:46.693Z,101137.14
2018-12-18T02:01:14.802Z,101135.97
2018-12-18T02:03:42.916Z,101135.80
2018-12-18T02:06:11.026Z,101129.22
2018-12-18T02:08:39.134Z,101134.00
2018-12-18T02:11:07.237Z,101126.58
2018-12-18T02:13:35.371Z,101127.90
2018-12-18T02:16:03.472Z,101131.68
2018-12-18T02:18:31.581Z,101130.86
2018-12-18T02:20:59.691Z,101130.19
2018-12-18T02:23:27.792Z,101130.06
2018-12-18T02:25:55.910Z,101129.55
2018-12-18T02:28:24.011Z,101127.58
2018-12-18T02:30:52.126Z,101128.09
2018-12-18T02:33:20.230Z,101124.00
2018-12-18T02:35:48.339Z,101120.37
2018-12-18T02:38:16.441Z,101120.70
2018-12-18T02:40:44.575Z,101119.20
2018-12-18T02:43:12.681Z,101113.97
2018-12-18T02:45:40.804Z,101113.31
2018-12-18T02:48:08.908Z,101107.78
2018-12-18T02:50:37.021Z,101103.34
2018-12-18T02:53:05.132Z,101105.48
2018-12-18T02:55:33.248Z,101112.77
2018-12-18T02:58:01.359Z,101111.80
2018-12-18T03:00:29.502Z,101110.52
2018-12-18T03:02:57.620Z,101107.11
2018-12-18T03:05:25.733Z,101108.42
2018-12-18T03:07:53.839Z,101108.30
2018-12-18T03:10:21.963Z,101107.52
2018-12-18T03:12:50.066Z,101109.98
2018-12-18T03:15:18.202Z,101109.73
2018-12-18T03:17:46.313Z,101108.24
2018-12-18T03:20:14.429Z,101114.06
2018-12-18T03:22:42.657Z,101122.27
2018-12-18T03:25:10.772Z,101119.00
2018-12-18T03:27:38.880Z,101110.98
2018-12-18T03:30:07.000Z,101110.86
2018-12-18T03:32:36.105Z,101115.33
2018-12-18T03:35:04.496Z,101118.14
2018-12-18T03:37:32.611Z,101112.09
2018-12-18T03:40:00.720Z,101111.63
2018-12-18T03:42:28.835Z,101111.50
2018-12-18T03:44:56.944Z,101115.16
2018-12-18T03:47:25.061Z,101112.36
2018-12-18T03:49:53.181Z,101116.02
2018-12-18T03:52:21.289Z,101113.90
2018-12-18T03:54:49.419Z,101109.48
2018-12-18T03:57:17.524Z,101105.41
2018-12-18T03:59:45.648Z,101115.97
2018-12-18T04:02:13.751Z,101113.88
2018-12-18T04:04:41.865Z,101116.02
2018-12-18T04:07:09.978Z,101111.63
2018-12-18T04:09:38.100Z,101111.30
2018-12-18T04:12:08.997Z,101110.82
2018-12-18T04:14:37.606Z,101107.91
2018-12-18T04:17:05.750Z,101105.78
2018-12-18T04:19:33.974Z,101108.25
2018-12-18T04:22:02.072Z,101106.80
2018-12-18T04:24:30.177Z,101110.45
2018-12-18T04:26:58.316Z,101106.67
2018-12-18T04:29:26.440Z,101112.91
2018-12-18T04:31:54.566Z,101116.86
2018-12-18T04:34:22.669Z,101118.86
2018-12-18T04:36:50.784Z,101112.63
2018-12-18T04:39:18.918Z,101118.56
2018-12-18T04:41:47.027Z,101122.05
2018-12-18T04:44:15.163Z,101114.14
2018-12-18T04:46:43.275Z,101107.56
2018-12-18T04:49:11.378Z,101098.84
2018-12-18T04:51:39.501Z,101099.35
2018-12-18T04:54:07.597Z,101096.70
2018-12-18T04:56:35.711Z,101099.67
2018-12-18T04:59:03.819Z,101108.73
2018-12-18T05:01:31.938Z,101104.63
2018-12-18T05:04:00.066Z,101112.22
2018-12-18T05:06:28.186Z,101109.78
2018-12-18T05:08:56.316Z,101115.03
2018-12-18T05:11:24.423Z,101111.59
2018-12-18T05:13:52.542Z,101110.61
2018-12-18T05:16:20.663Z,101113.59
2018-12-18T05:18:48.776Z,101107.66
2018-12-18T05:21:16.890Z,101100.11
2018-12-18T05:23:44.999Z,101103.23
2018-12-18T05:26:13.125Z,101100.59
2018-12-18T05:28:41.254Z,101098.29
2018-12-18T05:31:09.478Z,101096.19
2018-12-18T05:33:37.582Z,101104.56
2018-12-18T05:36:05.695Z,101105.73
2018-12-18T05:38:33.796Z,101111.34
2018-12-18T05:41:01.907Z,101114.34
2018-12-18T05:43:30.012Z,101114.34
2018-12-18T05:45:58.118Z,101112.02
2018-12-18T05:48:26.230Z,101106.13
2018-12-18T05:50:54.352Z,101109.73
2018-12-18T05:53:22.466Z,101109.10
2018-12-18T05:55:50.595Z,101112.88
2018-12-18T05:58:18.693Z,101110.44
2018-12-18T06:00:46.827Z,101104.70
2018-12-18T06:03:14.941Z,101106.34
2018-12-18T06:05:43.054Z,101106.84
2018-12-18T06:08:11.183Z,101106.84
2018-12-18T06:10:39.299Z,101101.27
2018-12-18T06:13:07.399Z,101098.78
2018-12-18T06:15:35.513Z,101101.25
2018-12-18T06:18:03.622Z,101102.09
2018-12-18T06:20:31.742Z,101096.19
2018-12-18T06:22:59.864Z,101099.98
2018-12-18T06:25:28.003Z,101104.91
2018-12-18T06:27:56.124Z,101108.71
2018-12-18T06:30:24.288Z,101110.84
2018-12-18T06:32:52.417Z,101113.98
2018-12-18T06:35:20.549Z,101114.13
2018-12-18T06:37:48.667Z,101111.02
2018-12-18T06:40:16.779Z,101108.56
2018-12-18T06:42:44.880Z,101107.91
2018-12-18T06:45:13.588Z,101109.53
2018-12-18T06:47:41.692Z,101108.06
2018-12-18T06:50:33.218Z,101102.66
2018-12-18T06:53:01.327Z,101106.62
2018-12-18T06:55:29.454Z,101107.12
2018-12-18T06:57:57.558Z,101108.11
2018-12-18T07:00:25.686Z,101109.12
2018-12-18T07:02:53.801Z,101106.31
2018-12-18T07:05:21.924Z,101102.85
2018-12-18T07:07:50.036Z,101103.50
2018-12-18T07:10:18.236Z,101098.59
2018-12-18T07:12:46.333Z,101097.24
2018-12-18T07:15:14.446Z,101098.57
2018-12-18T07:17:42.572Z,101101.74
2018-12-18T07:20:10.696Z,101100.91
2018-12-18T07:22:38.849Z,101101.06
2018-12-18T07:25:06.967Z,101096.31
2018-12-18T07:27:35.085Z,101097.14
2018-12-18T07:30:03.831Z,101100.09
2018-12-18T07:32:31.976Z,101107.33
2018-12-18T07:35:00.083Z,101106.36
2018-12-18T07:37:28.192Z,101104.41
2018-12-18T07:39:56.298Z,101109.98
2018-12-18T07:42:24.419Z,101114.11
2018-12-18T07:44:52.530Z,101107.55
2018-12-18T07:47:20.650Z,101112.17
2018-12-18T07:49:48.760Z,101115.50
2018-12-18T07:52:16.878Z,101117.78
2018-12-18T07:54:44.991Z,101111.55
2018-12-18T07:57:13.112Z,101116.81
2018-12-18T07:59:41.240Z,101113.38
2018-12-18T08:02:09.356Z,101108.42
2018-12-18T08:04:37.461Z,101108.78
2018-12-18T08:07:05.582Z,101104.17
2018-12-18T08:09:33.704Z,101102.39
2018-12-18T08:12:01.833Z,101101.22
2018-12-18T08:14:29.959Z,101098.78
2018-12-18T08:16:58.081Z,101099.13
2018-12-18T08:19:26.202Z,101106.37
2018-12-18T08:21:54.348Z,101104.22
2018-12-18T08:24:22.457Z,101107.53
2018-12-18T08:26:50.631Z,101113.45
2018-12-18T08:29:18.745Z,101109.50
2018-12-18T08:31:46.880Z,101111.49
2018-12-18T08:34:14.995Z,101111.86
2018-12-18T08:36:43.122Z,101106.73
2018-12-18T08:39:11.236Z,101101.16
2018-12-18T08:41:39.372Z,101105.28
2018-12-18T08:44:07.506Z,101096.76
2018-12-18T08:46:35.675Z,101095.61
2018-12-18T08:49:03.778Z,101087.71
2018-12-18T08:51:31.915Z,101085.23
2018-12-18T08:54:00.046Z,101076.20
2018-12-18T08:56:28.253Z,101066.35
2018-12-18T08:58:56.372Z,101067.37
2018-12-18T09:01:24.494Z,101066.38
2018-12-18T09:03:52.605Z,101056.34
2018-12-18T09:06:20.716Z,101048.48
2018-12-18T09:08:48.837Z,101043.06
2018-12-18T09:11:16.955Z,101048.31
2018-12-18T09:13:45.064Z,101049.47
2018-12-18T09:16:18.643Z,101051.92
2018-12-18T09:18:46.764Z,101051.95
2018-12-18T09:21:14.875Z,101039.80
2018-12-18T09:23:42.986Z,101043.39
2018-12-18T09:26:11.103Z,101045.55
2018-12-18T09:28:39.221Z,101047.84
2018-12-18T09:31:07.340Z,101035.36
2018-12-18T09:33:35.536Z,101033.54
2018-12-18T09:36:03.644Z,101035.00
2018-12-18T09:38:37.307Z,101036.97
2018-12-18T09:41:11.058Z,101029.23
2018-12-18T09:43:57.915Z,101026.27
2018-12-18T09:46:26.116Z,101012.65
2018-12-18T09:48:54.244Z,100996.05
2018-12-18T09:51:22.376Z,100990.42
2018-12-18T09:53:50.480Z,100986.13
2018-12-18T09:56:18.597Z,100974.11
2018-12-18T09:58:46.784Z,100968.51
2018-12-18T10:01:14.915Z,100966.83
2018-12-18T10:03:43.036Z,100963.03
2018-12-18T10:06:11.149Z,100958.40
2018-12-18T10:08:39.266Z,100959.88
2018-12-18T10:11:07.381Z,100954.63
2018-12-18T10:13:35.517Z,100956.72
2018-12-18T10:16:03.647Z,100951.28
2018-12-18T10:18:31.777Z,100949.44
2018-12-18T10:20:59.902Z,100944.01
2018-12-18T10:23:28.037Z,100932.62
2018-12-18T10:25:56.150Z,100924.03
2018-12-18T10:28:24.279Z,100918.91
2018-12-18T10:30:52.403Z,100903.56
2018-12-18T10:33:20.531Z,100906.31
2018-12-18T10:35:48.650Z,100891.66
2018-12-18T10:38:16.760Z,100890.76
2018-12-18T10:40:44.908Z,100878.53
2018-12-18T10:43:13.028Z,100872.59
2018-12-18T10:45:41.136Z,100874.67
2018-12-18T10:48:09.256Z,100875.11
2018-12-18T10:50:37.456Z,100870.63
2018-12-18T10:53:05.577Z,100857.73
2018-12-18T10:55:33.787Z,100862.75
2018-12-18T10:58:01.902Z,100854.13
2018-12-18T11:00:35.547Z,100847.32
2018-12-18T11:03:03.674Z,100846.14
2018-12-18T11:05:31.783Z,100840.75
2018-12-18T11:07:59.919Z,100831.13
2018-12-18T11:10:28.049Z,100824.34
2018-12-18T11:13:01.780Z,100828.23
2018-12-18T11:15:29.899Z,100832.45
2018-12-18T11:17:58.022Z,100824.31
2018-12-18T11:20:26.139Z,100822.59
2018-12-18T11:22:54.266Z,100812.28
2018-12-18T11:25:22.385Z,100808.11
2018-12-18T11:27:50.521Z,100810.34
2018-12-18T11:30:18.639Z,100812.27
2018-12-18T11:32:46.783Z,100810.89
2018-12-18T11:35:14.921Z,100803.36
2018-12-18T11:37:43.034Z,100796.70
2018-12-18T11:40:11.133Z,100787.42
2018-12-18T11:42:39.254Z,100781.72
2018-12-18T11:45:07.378Z,100798.85
2018-12-18T11:47:35.516Z,100803.39
2018-12-18T11:50:05.588Z,100790.13
2018-12-18T11:52:33.725Z,100775.41
2018-12-18T11:55:01.848Z,100770.38
2018-12-18T11:57:29.989Z,100765.39
2018-12-18T11:59:58.095Z,100765.31
2018-12-18T12:02:26.222Z,100752.23
2018-12-18T12:04:54.344Z,100750.69
2018-12-18T12:07:22.478Z,100742.73
2018-12-18T12:09:50.606Z,100730.65
2018-12-18T12:12:18.743Z,100714.08
2018-12-18T12:14:47.129Z,100715.70
2018-12-18T12:17:15.512Z,100711.34
2018-12-18T12:19:43.629Z,100719.89
2018-12-18T12:22:11.753Z,100713.64
2018-12-18T12:24:39.877Z,100710.27
2018-12-18T12:30:14.543Z,100707.30
2018-12-18T12:32:42.672Z,100710.92
2018-12-18T12:35:10.780Z,100706.63
2018-12-18T12:37:38.884Z,100709.71
2018-12-18T12:40:07.370Z,100703.41
2018-12-18T12:42:35.491Z,100696.44
2018-12-18T12:45:04.681Z,100699.98
2018-12-18T12:47:32.830Z,100695.53
2018-12-18T12:50:00.955Z,100696.12
2018-12-18T12:52:29.061Z,100687.36
2018-12-18T12:54:57.181Z,100685.05
2018-12-18T12:57:25.300Z,100687.43
2018-12-18T12:59:56.525Z,100678.02
2018-12-18T13:02:24.672Z,100677.50
2018-12-18T13:04:52.793Z,100669.88
2018-12-18T13:07:20.903Z,100672.16
2018-12-18T13:09:49.028Z,100668.33
2018-12-18T13:12:17.140Z,100668.45
2018-12-18T13:14:45.257Z,100663.16
2018-12-18T13:17:13.360Z,100656.02
2018-12-18T13:19:41.491Z,100647.23
2018-12-18T13:22:09.627Z,100644.11
2018-12-18T13:24:37.753Z,100639.92
2018-12-18T13:27:05.899Z,100641.36
2018-12-18T13:29:34.578Z,100638.54
2018-12-18T13:32:02.680Z,100628.49
2018-12-18T13:34:30.809Z,100625.96
2018-12-18T13:36:58.923Z,100617.98
2018-12-18T13:39:27.041Z,100615.36
2018-12-18T13:41:55.183Z,100616.16
2018-12-18T13:44:23.307Z,100609.39
2018-12-18T13:46:51.415Z,100610.20
2018-12-18T13:49:19.529Z,100601.80
2018-12-18T13:51:47.637Z,100597.33
2018-12-18T13:54:15.790Z,100595.02
2018-12-18T13:56:43.892Z,100591.86
2018-12-18T13:59:12.021Z,100587.88
2018-12-18T14:01:40.135Z,100588.22
2018-12-18T14:04:08.257Z,100582.58
2018-12-18T14:06:36.373Z,100578.09
2018-12-18T14:09:07.436Z,100575.30
2018-12-18T14:11:35.550Z,100572.15
2018-12-18T14:14:03.688Z,100564.56
2018-12-18T14:16:31.783Z,100570.81
2018-12-18T14:18:59.918Z,100563.55
2018-12-18T14:21:28.100Z,100555.33
2018-12-18T14:23:56.245Z,100554.84
2018-12-18T14:26:24.409Z,100551.20
2018-12-18T14:28:52.537Z,100545.08
2018-12-18T14:31:20.657Z,100537.54
2018-12-18T14:33:48.765Z,100533.25
2018-12-18T14:36:17.016Z,100533.09
2018-12-18T14:38:45.190Z,100526.17
2018-12-18T14:41:13.312Z,100528.19
2018-12-18T14:43:41.441Z,100530.00
2018-12-18T14:46:09.559Z,100524.42
2018-12-18T14:48:37.674Z,100514.84
2018-12-18T14:51:05.808Z,100502.39
2018-12-18T14:53:33.923Z,100501.22
2018-12-18T14:56:02.050Z,100500.61
2018-12-18T14:58:30.198Z,100496.48
2018-12-18T15:00:58.354Z,100491.91
2018-12-18T15:03:26.468Z,100498.70
2018-12-18T15:05:54.720Z,100493.97
2018-12-18T15:08:22.840Z,100491.83
2018-12-18T15:10:50.966Z,100490.06
2018-12-18T15:13:19.085Z,100490.72
2018-12-18T15:15:47.199Z,100487.77
2018-12-18T15:18:15.328Z,100480.20
2018-12-18T15:20:43.445Z,100473.84
2018-12-18T15:23:11.551Z,100476.31
2018-12-18T15:25:39.679Z,100476.67
2018-12-18T15:28:07.781Z,100477.00
2018-12-18T15:30:35.896Z,100483.33
2018-12-18T15:33:03.998Z,100471.48
2018-12-18T15:35:32.164Z,100465.72
2018-12-18T15:38:00.458Z,100463.49
2018-12-18T15:40:28.659Z,100465.14
2018-12-18T15:42:56.762Z,100466.37
2018-12-18T15:45:24.885Z,100462.45
2018-12-18T15:47:52.986Z,100462.19
2018-12-18T15:50:21.093Z,100454.64
2018-12-18T15:52:49.207Z,100450.55
2018-12-18T15:55:17.344Z,100447.61
2018-12-18T15:57:45.448Z,100440.61
2018-12-18T16:00:13.564Z,100438.16
2018-12-18T16:02:41.667Z,100439.67
2018-12-18T16:05:09.798Z,100444.19
2018-12-18T16:07:37.897Z,100434.02
2018-12-18T16:10:07.544Z,100427.98
2018-12-18T16:12:35.829Z,100423.78
2018-12-18T16:15:06.827Z,100429.39
2018-12-18T16:17:34.933Z,100430.94
2018-12-18T16:20:03.131Z,100431.82
2018-12-18T16:22:31.247Z,100422.48
2018-12-18T16:24:59.371Z,100428.61
2018-12-18T16:27:27.472Z,100435.89
2018-12-18T16:29:55.594Z,100441.22
2018-12-18T16:32:23.702Z,100438.29
2018-12-18T16:34:51.819Z,100433.91
2018-12-18T16:37:23.078Z,100434.81
2018-12-18T16:39:50.071Z,100427.47
2018-12-18T16:42:18.193Z,100418.77
2018-12-18T16:44:46.363Z,100421.56
2018-12-18T16:47:14.641Z,100420.27
2018-12-18T16:49:42.752Z,100414.84
2018-12-18T16:52:10.952Z,100419.84
2018-12-18T16:54:39.167Z,100413.94
2018-12-18T16:57:13.090Z,100400.91
2018-12-18T16:59:37.451Z,100399.47
2018-12-18T17:02:05.728Z,100401.80
2018-12-18T17:04:34.202Z,100396.48
2018-12-18T17:07:02.338Z,100406.03
2018-12-18T17:09:30.475Z,100404.39
2018-12-18T17:11:58.601Z,100408.08
2018-12-18T17:14:26.715Z,100405.61
2018-12-18T17:16:54.837Z,100406.96
2018-12-18T17:19:22.945Z,100420.36
2018-12-18T17:21:51.054Z,100424.18
2018-12-18T17:24:19.161Z,100428.02
2018-12-18T17:26:47.274Z,100425.07
2018-12-18T17:29:15.376Z,100425.30
2018-12-18T17:31:43.489Z,100427.82
2018-12-18T17:34:11.594Z,100424.91
2018-12-18T17:36:39.724Z,100428.22
2018-12-18T17:39:07.920Z,100429.75
2018-12-18T17:41:36.089Z,100425.20
2018-12-18T17:44:04.197Z,100432.47
2018-12-18T17:46:32.302Z,100428.59
2018-12-18T17:49:00.420Z,100428.11
2018-12-18T17:51:28.543Z,100428.52
2018-12-18T17:53:56.643Z,100431.35
2018-12-18T17:56:24.755Z,100428.93
2018-12-18T17:58:53.258Z,100431.48
2018-12-18T18:01:21.449Z,100436.28
2018-12-18T18:03:49.558Z,100431.73
2018-12-18T18:06:17.676Z,100433.05
2018-12-18T18:08:46.007Z,100435.55
2018-12-18T18:11:14.118Z,100438.73
2018-12-18T18:13:42.224Z,100440.20
2018-12-18T18:16:10.334Z,100451.69
2018-12-18T18:18:38.450Z,100443.19
2018-12-18T18:21:06.573Z,100442.50
2018-12-18T18:23:34.680Z,100420.80
2018-12-18T18:26:02.967Z,100408.94
2018-12-18T18:28:31.077Z,100407.66
2018-12-18T18:30:59.187Z,100400.92
2018-12-18T18:33:27.302Z,100394.69
2018-12-18T18:35:55.485Z,100402.57
2018-12-18T18:38:23.599Z,100381.72
2018-12-18T18:40:51.714Z,100364.94
2018-12-18T18:43:19.891Z,100367.95
2018-12-18T18:45:48.016Z,100360.91
2018-12-18T18:48:16.125Z,100350.52
2018-12-18T18:50:54.559Z,100344.45
2018-12-18T18:53:22.722Z,100333.78
2018-12-18T18:55:50.880Z,100333.80
2018-12-18T18:58:19.008Z,100331.30
2018-12-18T19:00:47.138Z,100311.05
2018-12-18T19:03:15.249Z,100300.33
2018-12-18T19:05:43.361Z,100297.23
2018-12-18T19:08:11.477Z,100312.23
2018-12-18T19:10:39.609Z,100304.28
2018-12-18T19:13:07.720Z,100294.02
2018-12-18T19:15:35.883Z,100286.48
2018-12-18T19:18:03.984Z,100290.77
2018-12-18T19:20:32.102Z,100281.23
2018-12-18T19:23:00.251Z,100281.06
2018-12-18T19:25:28.359Z,100280.91
2018-12-18T19:27:56.478Z,100281.74
2018-12-18T19:30:24.584Z,100283.69
2018-12-18T19:32:52.966Z,100284.08
2018-12-18T19:35:21.063Z,100284.59
2018-12-18T19:37:49.183Z,100286.09
2018-12-18T19:40:17.295Z,100288.05
2018-12-18T19:42:45.407Z,100294.14
2018-12-18T19:45:13.790Z,100302.72
2018-12-18T19:47:41.914Z,100287.23
2018-12-18T19:50:10.024Z,100287.93
2018-12-18T19:52:38.138Z,100278.83
2018-12-18T19:55:06.251Z,100272.62
2018-12-18T19:57:34.365Z,100281.23
2018-12-18T20:00:02.869Z,100276.03
2018-12-18T20:02:30.992Z,100280.67
2018-12-18T20:04:59.101Z,100287.77
2018-12-18T20:07:27.206Z,100294.34
2018-12-18T20:09:55.312Z,100301.67
2018-12-18T20:12:23.434Z,100304.16
2018-12-18T20:14:51.536Z,100298.91
2018-12-18T20:17:19.725Z,100293.98
2018-12-18T20:19:48.211Z,100296.11
2018-12-18T20:22:16.396Z,100293.34
2018-12-18T20:24:44.498Z,100291.05
2018-12-18T20:27:12.611Z,100289.69
2018-12-18T20:29:40.909Z,100284.28
2018-12-18T20:32:09.024Z,100287.07
2018-12-18T20:34:37.130Z,100281.50
2018-12-18T20:37:05.257Z,100280.70
2018-12-18T20:39:33.367Z,100275.28
2018-12-18T20:42:01.489Z,100271.70
2018-12-18T20:44:29.606Z,100269.05
2018-12-18T20:46:57.732Z,100268.91
2018-12-18T20:49:25.978Z,100273.55
2018-12-18T20:51:54.102Z,100274.23
2018-12-18T20:54:22.232Z,100271.34
2018-12-18T20:56:50.368Z,100280.89
2018-12-18T20:59:18.496Z,100273.47
2018-12-18T21:01:46.623Z,100270.55
2018-12-18T21:04:14.743Z,100261.40
2018-12-18T21:06:42.860Z,100258.09
2018-12-18T21:09:10.966Z,100247.06
2018-12-18T21:11:39.084Z,100250.34
2018-12-18T21:14:07.196Z,100252.33
2018-12-18T21:16:35.323Z,100252.48
2018-12-18T21:19:03.424Z,100246.76
2018-12-18T21:21:31.561Z,100240.22
2018-12-18T21:23:59.658Z,100231.70
2018-12-18T21:26:27.754Z,100227.73
2018-12-18T21:28:55.887Z,100230.55
2018-12-18T21:31:23.988Z,100237.64
2018-12-18T21:33:52.106Z,100232.75
2018-12-18T21:36:20.347Z,100227.86
2018-12-18T21:38:48.676Z,100229.22
2018-12-18T21:41:16.795Z,100226.15
2018-12-18T21:43:44.919Z,100216.64
2018-12-18T21:46:13.067Z,100208.06
2018-12-18T21:48:41.197Z,100212.84
2018-12-18T21:51:09.316Z,100209.71
2018-12-18T21:53:37.440Z,100208.27
2018-12-18T21:56:05.545Z,100200.71
2018-12-18T21:58:33.677Z,100190.03
2018-12-18T22:01:01.782Z,100181.12
2018-12-18T22:03:29.884Z,100184.54
2018-12-18T22:05:58.000Z,100182.09
2018-12-18T22:08:26.139Z,100172.84
2018-12-18T22:10:54.253Z,100161.52
2018-12-18T22:13:22.389Z,100160.20
2018-12-18T22:15:50.551Z,100150.33
2018-12-18T22:18:18.685Z,100144.53
2018-12-18T22:20:46.832Z,100143.41
2018-12-18T22:23:15.032Z,100146.87
2018-12-18T22:25:43.150Z,100147.22
2018-12-18T22:28:11.439Z,100147.88
2018-12-18T22:30:39.558Z,100145.13
2018-12-18T22:33:07.678Z,100139.36
2018-12-18T22:35:35.780Z,100138.14
2018-12-18T22:38:03.893Z,100135.53
2018-12-18T22:40:31.998Z,100144.90
2018-12-18T22:43:00.114Z,100134.70
2018-12-18T22:45:28.532Z,100129.60
2018-12-18T22:47:56.655Z,100131.26
2018-12-18T22:50:24.770Z,100133.23
2018-12-18T22:52:52.891Z,100135.30
2018-12-18T22:55:20.987Z,100130.42
2018-12-18T22:57:49.118Z,100134.68
2018-12-18T23:00:19.201Z,100142.03
2018-12-18T23:02:47.325Z,100133.07
2018-12-18T23:05:16.122Z,100133.91
2018-12-18T23:07:44.241Z,100131.98
2018-12-18T23:10:12.362Z,100126.24
2018-12-18T23:12:40.491Z,100112.76
2018-12-18T23:15:08.599Z,100109.44
2018-12-18T23:17:36.722Z,100107.30
2018-12-18T23:20:05.490Z,100099.08
2018-12-18T23:22:33.594Z,100102.80
2018-12-18T23:25:01.714Z,100107.41
2018-12-18T23:27:30.081Z,100110.03
2018-12-18T23:29:58.182Z,100103.28
2018-12-18T23:32:26.304Z,100104.30
2018-12-18T23:34:54.401Z,100114.66
2018-12-18T23:37:22.530Z,100114.80
2018-12-18T23:39:50.640Z,100118.23
2018-12-18T23:42:18.748Z,100119.01
2018-12-18T23:44:46.855Z,100126.97
2018-12-18T23:47:14.968Z,100115.44
2018-12-18T23:49:43.085Z,100119.70
2018-12-18T23:52:11.266Z,100115.22
2018-12-18T23:54:39.453Z,100120.47
2018-12-18T23:57:07.571Z,100125.50
2018-12-18T23:59:35.685Z,100134.04
